Conasauga, TN

7:16 AM EDT on October 14, 2019 (GMT -0400)
Top Hunt Rd. Hill | | Change Station
Active Advisory: Special Statement

Elev 853 ft 35.04 °N, 84.85 °W | Updated 11 seconds ago

Mostly Cloudy
Mostly Cloudy
40.5 °F
Feels Like 40 °F
N
0
Wind Variable Wind from NW
Gusts 0.0 mph

Today
High -- | Low -- °F
--% Chance of Precip.
Yesterday
High -- | Low -- °F
Precip. -- in
Pressure 30.13 in
Visibility 1.5 miles
Clouds Overcast 200 ft
Windchill 40 °F
Dew Point 40 °F
Humidity 99%
Rainfall 0.00 in
Snow Depth Not available.
7:43 AM 7:05 PM
Full, 100% visible
METAR KRZR 141055Z AUTO 00000KT 1 1/2SM BR OVC002 05/05 A3013 RMK A01 VIS 3/4V5
Pressure 30.13 in
Visibility 1.5 miles
Clouds Overcast 200 ft
Windchill 40 °F
Dew Point 40 °F
Humidity 99%
Rainfall 0.00 in
Snow Depth Not available.
7:43 AM 7:05 PM
Full, 100% visible
METAR KRZR 141055Z AUTO 00000KT 1 1/2SM BR OVC002 05/05 A3013 RMK A01 VIS 3/4V5

Get Your Daily Forecast Email!

Thanks for signing up!

Be on the lookout for a verification email in your inbox.

You'll start receiving severe weather alerts in your inbox..

×

10-Day Weather Forecast

Almanac

Astronomy

Oct. 14, 2019 Rise Set
Actual Time
Civil Twilight
Nautical Twilight
Astronomical Twilight
Moon
Length of Visible Light
Length of Day
Tomorrow will be .
, % of the Moon is Illuminated

Today's Extremes

State Highs State Lows

Community

WunderPhotos

Category 6

Welcome to Category 6. This is the collective home for Weather Underground's featured writeups by Dr. Jeff Masters (right), Bob Henson (left), Chris Burt, and other regular contributors.

Nearby

Air Quality

  Air Quality AQ Index Pollutant
Not available.

Snow Depth

Station Depth Elevation

Earthquake Activity

City Distance Mag. Time & Date
Minimum magnitude displayed is 2.5.

Coastal Water Temperatures

Place Temperature

Stations

Nearby Weather Stations

Station Location Temp. Windchill Dew Point Humidity Wind Precip. Elev Updated Type
                   

Watches & Warnings

Special Statement
Issued: 5:51 AM EDT Oct. 14, 2019 – National Weather Service

... Patchy dense fog this morning...

Patchy dense fog has developed across the region this morning,
especially in the local river valleys where visibility has lowered
to one half mile or less. This fog is expected to persist through
sunrise, therefore motorists are urged to use caution while
driving this morning.


Cdg